Garner, KY (41817)

12:25 PM EDT on September 17, 2014 (GMT -0400)
Middle Creek VFD Station 2 | Change Station
CLOSE
Current Station
Personal Weather Station
Location: Prestonsburg, KY
Elevation: 689 ft
Nearby Weather Stations

Elev 689 ft 37.64 °N, 82.85 °W | Updated 13 minutes ago

Partly Cloudy
Partly Cloudy
62.7 °F
Feels Like 62.7 °F
N
0.0
Wind Variable Wind from North

Today
High -- | Low -- °F
--% Chance of Precip.
Yesterday
High -- | Low -- °F
Precip. -- in
7:15 AM 7:36 PM
Waning Crescent, 35% visible
Pressure 30.01 in
Visibility 10.0 miles
Clouds Few 1500 ft
Dew Point 59 °F
Humidity 88%
Rainfall 0.00 in
Snow Depth Not available.
UV 7 out of 12
Pollen 5.60 out of 12
Air Quality Not available.
Flu Activity Not available.
METAR KJKL 171553Z AUTO 00000KT 10SM FEW015 17/12 A3003 RMK AO2 SLP163 T01670117

More Conditions Fewer Conditions

Pressure 30.01 in
Visibility 10.0 miles
Clouds Few 1500 ft
Dew Point 59 °F
Humidity 88%
Rainfall 0.00 in
Snow Depth Not available.
UV 7 out of 12
Pollen 5.60 out of 12
Air Quality Not available.
Flu Activity Not available.
METAR KJKL 171553Z AUTO 00000KT 10SM FEW015 17/12 A3003 RMK AO2 SLP163 T01670117

More Conditions Fewer Conditions

10-Day Weather Forecast

Almanac

Astronomy

Sep. 17, 2014 Rise Set
Actual Time 7:15 AM EDT 7:36 PM EDT
Civil Twilight 6:49 AM EDT 8:02 PM EDT
Nautical Twilight 6:18 AM EDT 8:32 PM EDT
Astronomical Twilight 5:47 AM EDT 9:04 PM EDT
Moon 1:19 AM EDT 3:40 PM EDT
Length of Visible Light 13h 13m
Length of Day
12h 20m
Tomorrow will be 2m 23s shorter.
Waning Crescent, 35% of the Moon is Illuminated
Today
Waning Crescent
Sep 24
New
Oct 1
First Quarter
Oct 8
Full
Oct 15
Last Quarter

Today's Extremes

State Highs State Lows

Community

WunderPhotos

Upload Photos

1,754,100 photos uploaded!

Nearby

Snow Depth

Station Depth Elevation
No new snow has been reported.

Earthquake Activity

City Distance Mag. Time & Date
No recent earthquake activity has been reported nearby.
Minimum magnitude displayed is 2.5.

Coastal Water Temperatures

Place Temperature
No Stations Reporting

Nearby Weather Stations